createdAt,value
2023-03-27T00:00:57.812Z,98877.91
2023-03-27T00:04:03.004Z,98883.28
2023-03-27T00:07:06.124Z,98885.50
2023-03-27T00:10:12.366Z,98855.72
2023-03-27T00:13:17.970Z,98869.72
2023-03-27T00:16:27.017Z,98868.84
2023-03-27T00:19:34.094Z,98851.91
2023-03-27T00:22:37.587Z,98849.34
2023-03-27T00:25:42.144Z,98841.63
2023-03-27T00:28:45.687Z,98840.16
2023-03-27T00:31:49.546Z,98840.66
2023-03-27T00:34:53.177Z,98835.50
2023-03-27T00:37:57.330Z,98829.34
2023-03-27T00:41:01.608Z,98819.78
2023-03-27T00:44:22.753Z,98814.66
2023-03-27T00:47:34.259Z,98807.81
2023-03-27T00:50:42.681Z,98801.06
2023-03-27T00:53:47.784Z,98804.50
2023-03-27T00:56:51.532Z,98793.97
2023-03-27T00:59:57.546Z,98800.34
2023-03-27T01:03:05.873Z,98793.38
2023-03-27T01:06:14.024Z,98798.75
2023-03-27T01:09:20.322Z,98797.75
2023-03-27T01:12:44.180Z,98784.19
2023-03-27T01:16:04.929Z,98773.03
2023-03-27T01:19:46.005Z,98771.16
2023-03-27T01:22:56.715Z,98769.22
2023-03-27T01:26:35.609Z,98768.72
2023-03-27T01:30:03.018Z,98765.19
2023-03-27T01:33:34.853Z,98760.75
2023-03-27T01:36:40.950Z,98750.97
2023-03-27T01:40:10.976Z,98744.59
2023-03-27T01:43:26.654Z,98747.44
2023-03-27T01:46:46.884Z,98745.09
2023-03-27T01:50:08.185Z,98739.72
2023-03-27T01:53:28.551Z,98736.03
2023-03-27T01:56:37.798Z,98745.09
2023-03-27T01:59:44.767Z,98732.38
2023-03-27T02:03:04.598Z,98735.28
2023-03-27T02:06:34.742Z,98726.84
2023-03-27T02:09:47.782Z,98712.37
2023-03-27T02:13:01.813Z,98713.13
2023-03-27T02:16:09.122Z,98719.50
2023-03-27T02:19:20.398Z,98707.50
2023-03-27T02:22:37.602Z,98713.50
2023-03-27T02:25:44.746Z,98717.78
2023-03-27T02:29:12.611Z,98713.50
2023-03-27T02:32:16.215Z,98720.47
2023-03-27T02:35:46.340Z,98720.63
2023-03-27T02:39:02.360Z,98722.44
2023-03-27T02:42:16.844Z,98716.44
2023-03-27T02:45:30.636Z,98718.16
2023-03-27T02:48:42.547Z,98709.94
2023-03-27T02:51:53.735Z,98698.56
2023-03-27T02:55:06.723Z,98687.31
2023-03-27T02:58:20.767Z,98677.88
2023-03-27T03:01:26.917Z,98682.03
2023-03-27T03:04:42.036Z,98671.38
2023-03-27T03:07:46.631Z,98662.59
2023-03-27T03:10:51.005Z,98664.53
2023-03-27T03:13:54.255Z,98661.00
2023-03-27T03:16:57.818Z,98654.72
2023-03-27T03:20:01.010Z,98625.88
2023-03-27T03:23:06.783Z,98641.03
2023-03-27T03:26:12.376Z,98639.44
2023-03-27T03:29:22.019Z,98648.38
2023-03-27T03:32:27.685Z,98644.00
2023-03-27T03:35:31.843Z,98642.41
2023-03-27T03:38:41.512Z,98647.62
2023-03-27T03:41:48.278Z,98644.94
2023-03-27T03:44:51.475Z,98646.78
2023-03-27T03:47:56.229Z,98640.56
2023-03-27T03:51:02.267Z,98643.25
2023-03-27T03:54:06.845Z,98620.00
2023-03-27T03:57:10.042Z,98636.03
2023-03-27T04:00:14.403Z,98629.03
2023-03-27T04:03:20.917Z,98626.34
2023-03-27T04:06:27.668Z,98630.78
2023-03-27T04:09:33.100Z,98630.03
2023-03-27T04:12:37.207Z,98629.03
2023-03-27T04:15:41.784Z,98626.50
2023-03-27T04:18:49.760Z,98622.06
2023-03-27T04:21:54.650Z,98625.88
2023-03-27T04:24:58.205Z,98626.00
2023-03-27T04:28:04.434Z,98621.84
2023-03-27T04:31:11.162Z,98626.38
2023-03-27T04:34:20.637Z,98620.25
2023-03-27T04:37:25.770Z,98626.38
2023-03-27T04:40:30.933Z,98618.56
2023-03-27T04:43:36.975Z,98625.75
2023-03-27T04:46:42.077Z,98613.03
2023-03-27T04:49:50.956Z,98629.31
2023-03-27T04:52:58.948Z,98621.59
2023-03-27T04:56:05.666Z,98628.69
2023-03-27T04:59:09.074Z,98623.44
2023-03-27T05:02:13.132Z,98599.69
2023-03-27T05:05:18.609Z,98619.66
2023-03-27T05:08:22.203Z,98614.50
2023-03-27T05:11:25.845Z,98609.75
2023-03-27T05:14:29.504Z,98611.44
2023-03-27T05:17:42.237Z,98610.34
2023-03-27T05:20:49.026Z,98605.09
2023-03-27T05:23:53.478Z,98608.38
2023-03-27T05:26:58.332Z,98600.19
2023-03-27T05:30:02.575Z,98590.63
2023-03-27T05:33:06.645Z,98595.28
2023-03-27T05:36:10.477Z,98588.81
2023-03-27T05:39:17.149Z,98591.37
2023-03-27T05:42:20.797Z,98578.19
2023-03-27T05:45:24.410Z,98596.50
2023-03-27T05:48:28.008Z,98593.06
2023-03-27T05:51:36.051Z,98578.66
2023-03-27T05:54:39.135Z,98578.66
2023-03-27T05:57:44.006Z,98569.59
2023-03-27T06:00:48.179Z,98568.84
2023-03-27T06:03:56.327Z,98578.66
2023-03-27T06:07:03.227Z,98560.28
2023-03-27T06:10:13.732Z,98565.31
2023-03-27T06:13:21.853Z,98567.00
2023-03-27T06:16:26.134Z,98562.50
2023-03-27T06:19:30.802Z,98564.19
2023-03-27T06:22:34.328Z,98558.56
2023-03-27T06:25:39.499Z,98566.78
2023-03-27T06:28:43.644Z,98567.00
2023-03-27T06:31:48.531Z,98563.47
2023-03-27T06:34:52.681Z,98566.53
2023-03-27T06:38:00.861Z,98557.38
2023-03-27T06:41:05.786Z,98565.44
2023-03-27T06:44:11.436Z,98549.31
2023-03-27T06:47:19.180Z,98560.31
2023-03-27T06:50:26.755Z,98553.09
2023-03-27T06:53:35.526Z,98537.78
2023-03-27T06:56:40.850Z,98547.34
2023-03-27T06:59:46.527Z,98544.13
2023-03-27T07:02:57.861Z,98550.75
2023-03-27T07:06:03.611Z,98548.41
2023-03-27T07:09:08.453Z,98537.97
2023-03-27T07:12:12.912Z,98537.97
2023-03-27T07:15:17.985Z,98537.97
2023-03-27T07:18:22.771Z,98540.66
2023-03-27T07:21:26.599Z,98529.91
2023-03-27T07:24:33.255Z,98537.50
2023-03-27T07:27:37.727Z,98541.66
2023-03-27T07:30:41.643Z,98549.62
2023-03-27T07:33:46.517Z,98548.06
2023-03-27T07:36:50.777Z,98550.84
2023-03-27T07:39:54.028Z,98564.19
2023-03-27T07:42:59.977Z,98569.22
2023-03-27T07:46:06.278Z,98574.00
2023-03-27T07:49:10.011Z,98577.69
2023-03-27T07:52:14.739Z,98576.59
2023-03-27T07:55:23.204Z,98567.25
2023-03-27T07:58:29.538Z,98574.38
2023-03-27T08:01:34.311Z,98572.75
2023-03-27T08:04:38.482Z,98563.69
2023-03-27T08:07:45.593Z,98570.91
2023-03-27T08:10:55.170Z,98567.37
2023-03-27T08:13:59.728Z,98566.84
2023-03-27T08:17:15.166Z,98559.63
2023-03-27T08:20:19.867Z,98554.88
2023-03-27T08:23:27.210Z,98545.69
2023-03-27T08:26:32.306Z,98543.84
2023-03-27T08:29:37.614Z,98539.28
2023-03-27T08:32:41.804Z,98530.00
2023-03-27T08:35:48.852Z,98534.75
2023-03-27T08:38:55.516Z,98549.47
2023-03-27T08:42:03.171Z,98553.28
2023-03-27T08:45:21.580Z,98559.38
2023-03-27T08:48:52.510Z,98565.63
2023-03-27T08:52:00.848Z,98566.97
2023-03-27T08:55:19.683Z,98557.56
2023-03-27T08:58:23.263Z,98556.88
2023-03-27T09:02:14.538Z,98562.00
2023-03-27T09:05:18.463Z,98578.03
2023-03-27T09:08:47.196Z,98577.16
2023-03-27T09:11:59.118Z,98590.63
2023-03-27T09:15:07.662Z,98600.69
2023-03-27T09:18:22.962Z,98606.78
2023-03-27T09:21:47.022Z,98604.72
2023-03-27T09:24:54.393Z,98610.12
2023-03-27T09:28:01.610Z,98618.53
2023-03-27T09:31:24.959Z,98619.41
2023-03-27T09:34:34.107Z,98627.56
2023-03-27T09:37:37.669Z,98638.72
2023-03-27T09:40:53.366Z,98634.44
2023-03-27T09:44:25.614Z,98641.91
2023-03-27T09:47:35.781Z,98645.69
2023-03-27T09:50:45.934Z,98653.03
2023-03-27T09:53:59.477Z,98655.84
2023-03-27T09:57:11.322Z,98659.25
2023-03-27T10:00:29.343Z,98661.09
2023-03-27T10:03:52.066Z,98668.44
2023-03-27T10:07:01.738Z,98673.06
2023-03-27T10:10:20.128Z,98667.69
2023-03-27T10:13:29.572Z,98681.50
2023-03-27T10:16:40.379Z,98676.59
2023-03-27T10:19:45.179Z,98676.09
2023-03-27T10:23:08.574Z,98682.34
2023-03-27T10:26:17.058Z,98679.03
2023-03-27T10:29:30.689Z,98684.63
2023-03-27T10:33:00.410Z,98690.37
2023-03-27T10:36:09.735Z,98686.44
2023-03-27T10:39:14.721Z,98689.75
2023-03-27T10:42:20.181Z,98691.59
2023-03-27T10:45:24.062Z,98691.59
2023-03-27T10:48:39.483Z,98680.59
2023-03-27T10:52:03.222Z,98684.00
2023-03-27T10:55:36.080Z,98686.72
2023-03-27T10:59:11.538Z,98703.81
2023-03-27T11:02:28.669Z,98699.06
2023-03-27T11:05:39.130Z,98691.34
2023-03-27T11:08:43.857Z,98695.13
2023-03-27T11:11:54.512Z,98698.91
2023-03-27T11:15:10.624Z,98711.59
2023-03-27T11:18:25.044Z,98717.84
2023-03-27T11:21:47.490Z,98706.47
2023-03-27T11:25:06.013Z,98722.84
2023-03-27T11:28:21.868Z,98717.47
2023-03-27T11:31:40.227Z,98716.81
2023-03-27T11:34:57.880Z,98715.28
2023-03-27T11:38:19.708Z,98705.00
2023-03-27T11:41:32.497Z,98710.91
2023-03-27T11:44:37.180Z,98721.91
2023-03-27T11:47:42.735Z,98721.06
2023-03-27T11:50:57.847Z,98723.84
2023-03-27T11:54:25.009Z,98717.12
2023-03-27T11:57:29.043Z,98711.06
2023-03-27T12:01:01.957Z,98733.25
2023-03-27T12:04:29.164Z,98724.69
2023-03-27T12:08:00.156Z,98729.97
2023-03-27T12:11:08.706Z,98732.81
2023-03-27T12:14:40.102Z,98725.22
2023-03-27T12:18:36.133Z,98719.38
2023-03-27T12:21:58.791Z,98726.25
2023-03-27T12:25:20.171Z,98731.13
2023-03-27T12:28:41.262Z,98733.84
2023-03-27T12:32:04.018Z,98726.50
2023-03-27T12:35:21.615Z,98735.75
2023-03-27T12:38:30.578Z,98722.19
2023-03-27T12:41:38.188Z,98727.28
2023-03-27T12:45:14.740Z,98739.06
2023-03-27T12:48:21.580Z,98746.28
2023-03-27T12:51:54.553Z,98749.22
2023-03-27T12:55:27.675Z,98744.63
2023-03-27T12:58:36.999Z,98767.09
2023-03-27T13:01:51.603Z,98773.69
2023-03-27T13:05:26.985Z,98774.91
2023-03-27T13:08:45.519Z,98785.28
2023-03-27T13:12:28.375Z,98787.47
2023-03-27T13:15:57.775Z,98816.94
2023-03-27T13:19:15.497Z,98814.13
2023-03-27T13:22:37.067Z,98827.78
2023-03-27T13:26:04.518Z,98842.06
2023-03-27T13:29:20.083Z,98847.28
2023-03-27T13:32:38.224Z,98851.75
2023-03-27T13:36:05.116Z,98856.19
2023-03-27T13:39:22.316Z,98862.56
2023-03-27T13:42:33.118Z,98886.97
2023-03-27T13:45:46.713Z,98893.22
2023-03-27T13:49:32.883Z,98902.19
2023-03-27T13:53:05.947Z,98928.94
2023-03-27T13:56:45.617Z,98940.97
2023-03-27T14:00:00.241Z,98916.88
2023-03-27T14:03:26.778Z,98958.72
2023-03-27T14:06:52.698Z,98972.59
2023-03-27T14:10:02.132Z,98972.22
2023-03-27T14:13:43.355Z,98992.75
2023-03-27T14:17:12.746Z,98995.37
2023-03-27T14:20:25.413Z,99015.22
2023-03-27T14:23:37.522Z,99022.50
2023-03-27T14:26:46.139Z,99038.06
2023-03-27T14:30:14.629Z,99058.09
2023-03-27T14:33:20.559Z,99050.63
2023-03-27T14:36:30.235Z,99068.00
2023-03-27T14:39:38.499Z,99065.31
2023-03-27T14:42:48.248Z,99066.94
2023-03-27T14:45:54.528Z,99080.44
2023-03-27T14:49:00.421Z,99079.09
2023-03-27T14:52:07.880Z,99086.41
2023-03-27T14:55:20.565Z,99092.91
2023-03-27T14:58:25.758Z,99111.03
2023-03-27T15:01:32.183Z,99119.56
2023-03-27T15:04:40.320Z,99099.06
2023-03-27T15:07:47.054Z,99134.84
2023-03-27T15:10:54.232Z,99140.41
2023-03-27T15:14:01.611Z,99137.03
2023-03-27T15:17:19.330Z,99169.66
2023-03-27T15:20:28.412Z,99182.31
2023-03-27T15:24:18.178Z,99195.59
2023-03-27T15:27:40.881Z,99201.22
2023-03-27T15:30:54.167Z,99202.38
2023-03-27T15:34:03.996Z,99219.38
2023-03-27T15:37:16.699Z,99240.06
2023-03-27T15:40:26.926Z,99239.19
2023-03-27T15:43:32.048Z,99242.16
2023-03-27T15:46:50.834Z,99252.19
2023-03-27T15:50:17.696Z,99268.25
2023-03-27T15:53:41.465Z,99279.50
2023-03-27T15:56:45.164Z,99285.19
2023-03-27T15:59:52.336Z,99302.25
2023-03-27T16:02:57.111Z,99313.03
2023-03-27T16:06:03.075Z,99348.81
2023-03-27T16:09:23.589Z,99338.09
2023-03-27T16:12:39.612Z,99345.34
2023-03-27T16:15:45.179Z,99357.09
2023-03-27T16:18:52.440Z,99358.91
2023-03-27T16:21:57.464Z,99373.66
2023-03-27T16:25:03.019Z,99382.84
2023-03-27T16:28:09.857Z,99386.34
2023-03-27T16:31:17.644Z,99413.97
2023-03-27T16:34:22.982Z,99423.56
2023-03-27T16:37:27.823Z,99429.31
2023-03-27T16:40:32.201Z,99438.13
2023-03-27T16:43:35.677Z,99442.63
2023-03-27T16:46:39.487Z,99451.69
2023-03-27T16:49:43.619Z,99465.72
2023-03-27T16:52:47.658Z,99480.13
2023-03-27T16:55:57.115Z,99477.94
2023-03-27T16:59:04.670Z,99490.41
2023-03-27T17:02:11.915Z,99505.50
2023-03-27T17:05:16.587Z,99512.69
2023-03-27T17:08:21.157Z,99523.22
2023-03-27T17:11:26.348Z,99542.59
2023-03-27T17:14:30.244Z,99527.94
2023-03-27T17:17:33.855Z,99538.44
2023-03-27T17:20:39.176Z,99557.88
2023-03-27T17:23:44.017Z,99569.50
2023-03-27T17:26:48.101Z,99581.22
2023-03-27T17:29:52.572Z,99574.97
2023-03-27T17:32:57.618Z,99595.72
2023-03-27T17:36:02.119Z,99596.56
2023-03-27T17:39:06.425Z,99604.69
2023-03-27T17:42:10.493Z,99604.13
2023-03-27T17:45:16.731Z,99622.34
2023-03-27T17:48:20.973Z,99607.28
2023-03-27T17:51:25.968Z,99618.84
2023-03-27T17:54:31.206Z,99612.87
2023-03-27T17:57:39.872Z,99620.25
2023-03-27T18:00:44.619Z,99619.25
2023-03-27T18:03:51.411Z,99615.53
2023-03-27T18:06:55.238Z,99631.56
2023-03-27T18:09:59.544Z,99622.66
2023-03-27T18:13:04.318Z,99639.25
2023-03-27T18:16:11.116Z,99648.97
2023-03-27T18:19:16.899Z,99676.13
2023-03-27T18:22:22.281Z,99681.34
2023-03-27T18:25:27.422Z,99701.72
2023-03-27T18:28:34.262Z,99716.00
2023-03-27T18:31:39.072Z,99743.34
2023-03-27T18:34:44.844Z,99746.38
2023-03-27T18:37:49.509Z,99759.22
2023-03-27T18:40:57.129Z,99763.25
2023-03-27T18:44:01.670Z,99770.00
2023-03-27T18:47:06.656Z,99778.53
2023-03-27T18:50:13.784Z,99768.97
2023-03-27T18:53:20.076Z,99765.06
2023-03-27T18:56:30.035Z,99765.13
2023-03-27T18:59:35.748Z,99779.69
2023-03-27T19:02:40.946Z,99792.00
2023-03-27T19:05:47.500Z,99797.53
2023-03-27T19:08:51.572Z,99803.69
2023-03-27T19:11:56.856Z,99814.97
2023-03-27T19:15:20.786Z,99807.03
2023-03-27T19:18:30.265Z,99792.25
2023-03-27T19:21:37.282Z,99805.50
2023-03-27T19:24:42.605Z,99797.38
2023-03-27T19:27:47.228Z,99781.97
2023-03-27T19:30:54.766Z,99789.03
2023-03-27T19:33:59.907Z,99780.81
2023-03-27T19:37:08.625Z,99772.03
2023-03-27T19:40:15.826Z,99764.00
2023-03-27T19:43:27.824Z,99755.13
2023-03-27T19:46:32.395Z,99743.72
2023-03-27T19:49:37.048Z,99750.94
2023-03-27T19:52:43.147Z,99714.22
2023-03-27T19:55:47.741Z,99745.78
2023-03-27T19:58:52.875Z,99754.06
2023-03-27T20:01:57.506Z,99756.41
2023-03-27T20:05:05.412Z,99756.72
2023-03-27T20:08:09.756Z,99768.94
2023-03-27T20:11:17.189Z,99767.47
2023-03-27T20:14:22.029Z,99769.94
2023-03-27T20:17:28.353Z,99766.25
2023-03-27T20:20:33.684Z,99772.94
2023-03-27T20:23:37.957Z,99758.09
2023-03-27T20:26:42.954Z,99789.97
2023-03-27T20:29:51.675Z,99794.81
2023-03-27T20:32:55.733Z,99795.00
2023-03-27T20:36:00.222Z,99804.38
2023-03-27T20:39:07.780Z,99813.62
2023-03-27T20:42:15.198Z,99820.56
2023-03-27T20:45:21.357Z,99816.63
2023-03-27T20:48:25.295Z,99773.81
2023-03-27T20:51:28.795Z,99820.72
2023-03-27T20:54:35.152Z,99821.84
2023-03-27T20:57:38.385Z,99805.63
2023-03-27T21:00:43.832Z,99826.91
2023-03-27T21:03:49.856Z,99822.62
2023-03-27T21:06:57.891Z,99836.59
2023-03-27T21:10:01.392Z,99847.72
2023-03-27T21:13:05.753Z,99846.34
2023-03-27T21:16:09.752Z,99855.66
2023-03-27T21:19:13.376Z,99851.00
2023-03-27T21:22:16.882Z,99853.81
2023-03-27T21:25:22.292Z,99831.50
2023-03-27T21:28:27.248Z,99860.72
2023-03-27T21:31:31.924Z,99875.06
2023-03-27T21:34:35.105Z,99851.19
2023-03-27T21:37:38.772Z,99881.09
2023-03-27T21:40:43.016Z,99882.97
2023-03-27T21:43:46.929Z,99881.31
2023-03-27T21:46:49.975Z,99904.75
2023-03-27T21:49:53.422Z,99904.34
2023-03-27T21:52:57.199Z,99907.50
2023-03-27T21:56:01.302Z,99914.41
2023-03-27T21:59:04.689Z,99922.78
2023-03-27T22:02:08.288Z,99931.63
2023-03-27T22:05:11.785Z,99934.97
2023-03-27T22:08:15.536Z,99937.88
2023-03-27T22:11:19.542Z,99950.16
2023-03-27T22:14:24.001Z,99936.00
2023-03-27T22:17:28.897Z,99942.97
2023-03-27T22:20:37.588Z,99942.09
2023-03-27T22:23:41.416Z,99957.25
2023-03-27T22:26:45.843Z,99943.91
2023-03-27T22:29:49.533Z,99957.47
2023-03-27T22:32:53.096Z,99973.38
2023-03-27T22:35:56.666Z,99985.09
2023-03-27T22:39:00.334Z,99984.28
2023-03-27T22:42:03.828Z,99993.44
2023-03-27T22:45:07.759Z,99992.53
2023-03-27T22:48:11.476Z,100000.00
2023-03-27T22:51:14.624Z,100013.94
2023-03-27T22:54:18.858Z,100011.38
2023-03-27T22:57:22.047Z,100019.38
2023-03-27T23:00:26.255Z,100014.31
2023-03-27T23:03:29.478Z,100020.53
2023-03-27T23:06:33.237Z,100028.81
2023-03-27T23:09:36.751Z,100024.59
2023-03-27T23:12:40.156Z,100039.38
2023-03-27T23:15:44.788Z,100039.19
2023-03-27T23:18:48.375Z,100052.53
2023-03-27T23:21:52.261Z,100046.69
2023-03-27T23:24:55.812Z,100065.75
2023-03-27T23:27:58.943Z,100057.63
2023-03-27T23:31:06.740Z,100060.31
2023-03-27T23:34:09.939Z,100072.22
2023-03-27T23:37:13.482Z,100086.12
2023-03-27T23:40:17.404Z,100085.97
2023-03-27T23:43:22.423Z,100087.09
2023-03-27T23:46:25.686Z,100092.31
2023-03-27T23:49:30.952Z,100086.69
2023-03-27T23:52:34.141Z,100092.03
2023-03-27T23:55:38.031Z,100068.28
2023-03-27T23:58:41.274Z,100096.00
